Time;durP1;ratioP1;P1;durP2;ratioP2;P2;SDS_P1;SDS_P2;PMS_P1;PMS_P2;Temp;Humidity;BMP_temperature;BMP_pressure;BME280_temperature;BME280_humidity;BME280_pressure;Samples;Min_cycle;Max_cycle;Signal;HPM_P1;HPM_P2
2023/03/12 00:00:49;;;;;;;0.60;0.43;;;5.50;99.90;;;;;;5087440;28;20404;-72
2023/03/12 00:03:15;;;;;;;0.10;0.10;;;5.50;99.90;;;;;;5054013;28;20487;-72
2023/03/12 00:05:42;;;;;;;2.10;1.50;;;5.50;99.90;;;;;;5055296;28;20028;-73
2023/03/12 00:08:09;;;;;;;5.18;1.30;;;5.50;99.90;;;;;;5055142;28;20083;-73
2023/03/12 00:10:37;;;;;;;0.13;0.13;;;5.50;99.90;;;;;;5055203;28;20362;-72
2023/03/12 00:13:03;;;;;;;2.40;0.20;;;5.50;99.90;;;;;;5054843;28;20072;-73
2023/03/12 00:15:29;;;;;;;0.40;0.40;;;5.50;99.90;;;;;;5087372;28;20028;-74
2023/03/12 00:17:55;;;;;;;0.17;0.17;;;5.60;99.90;;;;;;5054469;28;20461;-73
2023/03/12 00:20:22;;;;;;;0.10;0.10;;;5.70;99.90;;;;;;5055352;28;20545;-76
2023/03/12 00:22:49;;;;;;;0.35;0.35;;;5.80;99.90;;;;;;5055206;28;20358;-76
2023/03/12 00:25:15;;;;;;;0.35;0.35;;;6.00;99.90;;;;;;5053739;28;20064;-74
2023/03/12 00:27:42;;;;;;;0.45;0.45;;;6.00;99.90;;;;;;5054593;28;20025;-73
2023/03/12 00:30:10;;;;;;;0.00;0.00;;;6.20;99.90;;;;;;5053369;28;20123;-73
2023/03/12 00:32:36;;;;;;;0.10;0.10;;;6.30;99.90;;;;;;5055298;28;20102;-75
2023/03/12 00:35:02;;;;;;;0.10;0.10;;;6.30;99.90;;;;;;5053649;28;20029;-74
2023/03/12 00:37:28;;;;;;;0.15;0.15;;;6.30;99.90;;;;;;5053739;28;20029;-75
2023/03/12 00:39:54;;;;;;;0.68;0.68;;;6.30;99.90;;;;;;5053121;28;20040;-75
2023/03/12 00:42:20;;;;;;;0.13;0.13;;;6.30;99.90;;;;;;5053028;28;20025;-75
2023/03/12 00:44:46;;;;;;;0.00;0.00;;;6.20;99.90;;;;;;5054634;28;20033;-75
2023/03/12 00:47:12;;;;;;;0.52;0.30;;;6.20;99.90;;;;;;5053199;28;20029;-75
2023/03/12 00:49:38;;;;;;;8.65;2.22;;;6.20;99.90;;;;;;5057792;28;20064;-74
2023/03/12 00:52:05;;;;;;;22.45;0.95;;;6.00;99.90;;;;;;5054416;28;20109;-76
2023/03/12 00:54:31;;;;;;;0.25;0.25;;;5.80;99.90;;;;;;5054287;28;20029;-75
2023/03/12 00:56:57;;;;;;;0.60;0.50;;;5.90;99.90;;;;;;5052711;28;20452;-75
2023/03/12 00:59:22;;;;;;;0.38;0.38;;;6.00;99.90;;;;;;5053615;28;20029;-75
2023/03/12 01:01:49;;;;;;;0.10;0.10;;;6.00;99.90;;;;;;5053124;28;20561;-74
2023/03/12 01:04:16;;;;;;;0.40;0.40;;;5.90;99.90;;;;;;5052882;28;20025;-75
2023/03/12 01:06:42;;;;;;;0.20;0.20;;;5.90;99.90;;;;;;5086316;28;20024;-76
2023/03/12 01:09:09;;;;;;;0.55;0.55;;;5.90;99.90;;;;;;5053824;28;20057;-76
2023/03/12 01:11:35;;;;;;;1.60;0.63;;;5.90;99.90;;;;;;5052098;28;20028;-76
2023/03/12 01:14:02;;;;;;;0.65;0.65;;;5.90;99.90;;;;;;5053339;28;20021;-76
2023/03/12 01:16:29;;;;;;;0.45;0.45;;;5.70;99.90;;;;;;5052514;28;20097;-75
2023/03/12 01:19:00;;;;;;;0.80;0.80;;;5.80;99.90;;;;;;5053929;28;20033;-76
2023/03/12 01:21:28;;;;;;;0.65;0.47;;;5.80;99.90;;;;;;5053891;28;20037;-76
2023/03/12 01:23:55;;;;;;;2.65;1.30;;;5.70;99.90;;;;;;5052353;28;20017;-76
2023/03/12 01:26:22;;;;;;;6.45;1.48;;;5.70;99.90;;;;;;5052110;28;20048;-76
2023/03/12 01:28:48;;;;;;;5.68;2.05;;;5.80;99.90;;;;;;5052728;28;20017;-76
2023/03/12 01:31:17;;;;;;;2.45;1.10;;;5.80;99.90;;;;;;5035926;28;20035;-76
2023/03/12 01:33:44;;;;;;;6.57;1.60;;;5.60;99.90;;;;;;5053629;28;20032;-76
2023/03/12 01:36:29;;;;;;;5.38;1.75;;;5.60;99.90;;;;;;5053407;28;20033;-75
2023/03/12 01:38:58;;;;;;;0.20;0.20;;;5.70;99.90;;;;;;5053259;28;20037;-76
2023/03/12 01:41:26;;;;;;;6.00;1.92;;;5.80;99.90;;;;;;5052267;28;20151;-76
2023/03/12 01:43:52;;;;;;;2.28;1.58;;;5.90;99.90;;;;;;5052120;28;20025;-76
2023/03/12 01:46:29;;;;;;;6.53;2.03;;;5.90;99.90;;;;;;5051950;28;20485;-76
2023/03/12 01:48:56;;;;;;;1.45;1.15;;;5.70;99.90;;;;;;5051972;28;20020;-76
2023/03/12 01:51:26;;;;;;;1.25;1.05;;;5.70;99.90;;;;;;5051959;28;20125;-76
2023/03/12 01:53:57;;;;;;;2.67;1.25;;;5.60;99.90;;;;;;5052126;28;20040;-74
2023/03/12 01:56:27;;;;;;;1.63;1.13;;;5.60;99.90;;;;;;5032027;28;20075;-75
2023/03/12 01:58:56;;;;;;;1.75;1.25;;;5.60;99.90;;;;;;5060621;28;20124;-75
2023/03/12 02:01:23;;;;;;;6.18;2.22;;;5.70;99.90;;;;;;5051709;28;20057;-75
2023/03/12 02:03:52;;;;;;;1.38;1.20;;;5.80;99.90;;;;;;5085393;28;20535;-74
2023/03/12 02:06:27;;;;;;;0.65;0.38;;;5.90;99.90;;;;;;5051710;28;20032;-74
2023/03/12 02:08:54;;;;;;;0.45;0.43;;;6.00;99.90;;;;;;5052942;28;20123;-75
2023/03/12 02:11:20;;;;;;;0.30;0.30;;;5.90;99.90;;;;;;5051461;28;20123;-75
2023/03/12 02:13:46;;;;;;;2.40;1.10;;;6.00;99.90;;;;;;5051913;28;20023;-75
2023/03/12 02:16:12;;;;;;;6.28;2.25;;;5.90;99.90;;;;;;5084444;28;20393;-75
2023/03/12 02:18:38;;;;;;;10.20;1.90;;;5.70;99.90;;;;;;5051608;28;20508;-74
2023/03/12 02:21:22;;;;;;;2.03;1.60;;;5.60;99.90;;;;;;5052607;28;20029;-75
2023/03/12 02:24:18;;;;;;;1.95;0.93;;;5.60;99.90;;;;;;5051388;28;20104;-75
2023/03/12 02:26:45;;;;;;;0.10;0.10;;;5.50;99.90;;;;;;5051348;28;20033;-75
2023/03/12 02:29:11;;;;;;;0.30;0.30;;;5.50;99.90;;;;;;5051365;28;20052;-75
2023/03/12 02:31:43;;;;;;;0.57;0.47;;;5.50;99.90;;;;;;5051253;28;20381;-75
2023/03/12 02:34:09;;;;;;;3.78;1.48;;;5.60;99.90;;;;;;5051528;28;20124;-74
2023/03/12 02:36:36;;;;;;;1.35;0.75;;;5.60;99.90;;;;;;5034809;28;20029;-75
2023/03/12 02:39:03;;;;;;;0.80;0.55;;;5.50;99.90;;;;;;5051882;28;20037;-75
2023/03/12 02:41:33;;;;;;;6.63;1.15;;;5.50;99.90;;;;;;5084534;28;20025;-75
2023/03/12 02:44:15;;;;;;;2.65;1.10;;;5.60;99.90;;;;;;5051304;28;20029;-74
2023/03/12 02:46:47;;;;;;;3.13;1.58;;;5.50;99.90;;;;;;5052633;28;20086;-75
2023/03/12 02:49:14;;;;;;;1.27;1.00;;;5.40;99.90;;;;;;5052553;28;20075;-75
2023/03/12 02:51:42;;;;;;;2.53;1.65;;;5.40;99.90;;;;;;5034390;28;20505;-75
2023/03/12 02:54:09;;;;;;;3.40;1.75;;;5.40;99.90;;;;;;5052737;28;20033;-75
2023/03/12 02:56:35;;;;;;;2.60;1.23;;;5.30;99.90;;;;;;5052518;28;20029;-75
2023/03/12 02:59:01;;;;;;;1.17;0.88;;;5.30;99.90;;;;;;5052322;28;20036;-75
2023/03/12 03:01:28;;;;;;;3.83;1.50;;;5.20;99.90;;;;;;5051197;28;20067;-75
2023/03/12 03:03:54;;;;;;;1.65;0.85;;;5.20;99.90;;;;;;5051331;28;20048;-75
2023/03/12 03:06:21;;;;;;;6.43;1.23;;;5.30;99.90;;;;;;5084583;28;20040;-75
2023/03/12 03:08:47;;;;;;;4.43;1.40;;;5.20;99.90;;;;;;5053198;28;20029;-75
2023/03/12 03:11:13;;;;;;;1.25;1.15;;;5.20;99.90;;;;;;5051516;28;20406;-75
2023/03/12 03:13:39;;;;;;;0.63;0.57;;;5.20;99.90;;;;;;5051592;28;20021;-75
2023/03/12 03:16:06;;;;;;;14.70;1.50;;;5.20;99.90;;;;;;5051842;28;20029;-75
2023/03/12 03:18:32;;;;;;;3.95;1.70;;;5.20;99.90;;;;;;5051561;28;20129;-75
2023/03/12 03:21:01;;;;;;;0.85;0.60;;;5.30;99.90;;;;;;5051366;28;20052;-76
2023/03/12 03:23:29;;;;;;;1.00;0.90;;;5.20;99.90;;;;;;5051151;28;20105;-75
2023/03/12 03:25:55;;;;;;;3.40;1.23;;;5.20;99.90;;;;;;5052925;28;20116;-75
2023/03/12 03:28:23;;;;;;;1.42;0.98;;;5.10;99.90;;;;;;5051343;28;20059;-75
2023/03/12 03:30:53;;;;;;;2.65;1.48;;;5.10;99.90;;;;;;5052946;28;20048;-75
2023/03/12 03:33:19;;;;;;;1.55;1.00;;;5.10;99.90;;;;;;5052515;28;20033;-75
2023/03/12 03:35:47;;;;;;;0.20;0.20;;;5.20;99.90;;;;;;5052434;28;20021;-75
2023/03/12 03:38:13;;;;;;;0.30;0.30;;;5.20;99.90;;;;;;5052517;28;20047;-74
2023/03/12 03:40:38;;;;;;;0.13;0.10;;;5.20;99.90;;;;;;5051976;28;20568;-75
2023/03/12 03:43:04;;;;;;;9.45;1.55;;;5.30;99.90;;;;;;5052222;28;20017;-75
2023/03/12 03:45:30;;;;;;;0.20;0.20;;;5.40;99.90;;;;;;5050606;28;20440;-75
2023/03/12 03:47:56;;;;;;;0.65;0.47;;;5.40;99.90;;;;;;5050943;28;20028;-75
2023/03/12 03:50:22;;;;;;;0.80;0.70;;;5.40;99.90;;;;;;5049834;28;20036;-75
2023/03/12 03:52:48;;;;;;;7.32;1.75;;;5.40;99.90;;;;;;5033845;28;20025;-75
2023/03/12 03:55:15;;;;;;;10.48;1.15;;;5.30;99.90;;;;;;5047496;28;20029;-74
2023/03/12 03:57:41;;;;;;;0.10;0.10;;;5.30;99.90;;;;;;5054178;28;20021;-75
2023/03/12 04:00:11;;;;;;;8.57;1.67;;;5.20;99.90;;;;;;5055745;28;20036;-75
2023/03/12 04:02:41;;;;;;;0.57;0.47;;;5.30;99.90;;;;;;5053981;28;20049;-75
2023/03/12 04:05:10;;;;;;;3.58;1.58;;;5.40;99.90;;;;;;5037434;28;20052;-75
2023/03/12 04:07:36;;;;;;;0.57;0.55;;;5.30;99.90;;;;;;5053849;28;20025;-76
2023/03/12 04:10:03;;;;;;;0.10;0.10;;;5.40;99.90;;;;;;5055459;28;20040;-76
2023/03/12 04:12:29;;;;;;;0.17;0.17;;;5.40;99.90;;;;;;5055016;28;20032;-75
2023/03/12 04:14:55;;;;;;;1.20;0.95;;;5.50;99.90;;;;;;5054015;28;20013;-75
2023/03/12 04:17:22;;;;;;;0.43;0.43;;;5.50;99.90;;;;;;5053859;28;20028;-75
2023/03/12 04:19:47;;;;;;;1.17;1.13;;;5.30;99.90;;;;;;5053094;28;20029;-75
2023/03/12 04:22:13;;;;;;;1.48;1.40;;;5.30;99.90;;;;;;5053913;28;20028;-75
2023/03/12 04:24:39;;;;;;;0.28;0.28;;;5.40;99.90;;;;;;5055179;28;20373;-75
2023/03/12 04:27:05;;;;;;;3.17;1.52;;;5.40;99.90;;;;;;5053628;28;20086;-75
2023/03/12 04:29:33;;;;;;;6.07;1.48;;;5.30;99.90;;;;;;5053380;28;20039;-75
2023/03/12 04:31:59;;;;;;;4.22;2.25;;;5.20;99.90;;;;;;5053503;28;20489;-75
2023/03/12 04:34:25;;;;;;;1.25;0.80;;;5.20;99.90;;;;;;5054450;28;20035;-74
2023/03/12 04:36:52;;;;;;;0.50;0.50;;;5.20;99.90;;;;;;5053378;28;20052;-75
2023/03/12 04:39:19;;;;;;;0.30;0.30;;;5.20;99.90;;;;;;5053147;28;20064;-75
2023/03/12 04:41:46;;;;;;;3.20;1.52;;;5.30;99.90;;;;;;5053360;28;20025;-75
2023/03/12 04:44:14;;;;;;;0.68;0.68;;;5.30;99.90;;;;;;5054502;28;20024;-74
2023/03/12 04:46:41;;;;;;;0.68;0.68;;;5.30;99.90;;;;;;5053177;28;20099;-75
2023/03/12 04:49:10;;;;;;;6.18;1.67;;;5.30;99.90;;;;;;5052629;28;20024;-75
2023/03/12 04:51:37;;;;;;;6.20;1.70;;;5.30;99.90;;;;;;5053154;28;20024;-75
2023/03/12 04:54:04;;;;;;;5.82;0.82;;;5.30;99.90;;;;;;5052934;28;20021;-75
2023/03/12 04:56:30;;;;;;;1.25;0.40;;;5.30;99.90;;;;;;5053164;28;20428;-75
2023/03/12 04:58:57;;;;;;;0.08;0.08;;;5.30;99.90;;;;;;5052678;28;20401;-75
2023/03/12 05:01:30;;;;;;;0.40;0.40;;;5.40;99.90;;;;;;5054359;28;20029;-75
2023/03/12 05:03:56;;;;;;;0.30;0.30;;;5.50;99.90;;;;;;5052396;28;20094;-75
2023/03/12 05:06:24;;;;;;;2.38;0.73;;;5.50;99.90;;;;;;5053034;28;20063;-76
2023/03/12 05:08:51;;;;;;;0.30;0.30;;;5.40;99.90;;;;;;5036190;28;20031;-75
2023/03/12 05:11:18;;;;;;;0.17;0.17;;;5.40;99.90;;;;;;5052775;28;20032;-73
2023/03/12 05:13:44;;;;;;;0.73;0.73;;;5.40;99.90;;;;;;5052856;28;20033;-75
2023/03/12 05:16:11;;;;;;;0.50;0.50;;;5.30;99.90;;;;;;5086213;28;20025;-74
2023/03/12 05:18:37;;;;;;;3.97;1.42;;;5.40;99.90;;;;;;5052332;28;20032;-75
2023/03/12 05:21:10;;;;;;;2.40;1.50;;;5.30;99.90;;;;;;5053669;28;20037;-75
2023/03/12 05:23:38;;;;;;;1.65;1.13;;;5.30;99.90;;;;;;5051129;28;20025;-75
2023/03/12 05:26:18;;;;;;;0.95;0.73;;;5.30;99.90;;;;;;5052390;28;20025;-74
2023/03/12 05:28:44;;;;;;;1.38;1.27;;;5.30;99.90;;;;;;5052547;28;20032;-75
2023/03/12 05:31:10;;;;;;;0.47;0.47;;;5.40;99.90;;;;;;5052348;28;20037;-75
2023/03/12 05:33:37;;;;;;;1.13;0.85;;;5.30;99.90;;;;;;5052542;28;20051;-75
2023/03/12 05:36:03;;;;;;;7.45;2.50;;;5.30;99.90;;;;;;5052053;28;20029;-75
2023/03/12 05:38:29;;;;;;;2.25;1.35;;;5.30;99.90;;;;;;5085527;28;20021;-75
2023/03/12 05:40:58;;;;;;;1.33;0.70;;;5.30;99.90;;;;;;5035754;28;20021;-75
2023/03/12 05:43:26;;;;;;;0.28;0.28;;;5.40;99.90;;;;;;5052117;28;20561;-76
2023/03/12 05:45:56;;;;;;;3.10;2.25;;;5.40;99.90;;;;;;5051726;28;20495;-75
2023/03/12 05:48:22;;;;;;;2.28;1.48;;;5.30;99.90;;;;;;5032256;28;20163;-76
2023/03/12 05:50:49;;;;;;;0.80;0.80;;;5.40;99.90;;;;;;5050553;28;20032;-75
2023/03/12 05:53:14;;;;;;;1.35;1.25;;;5.50;99.90;;;;;;5085571;28;20472;-75
2023/03/12 05:55:42;;;;;;;1.02;0.93;;;5.40;99.90;;;;;;5085359;28;20385;-75
2023/03/12 05:58:08;;;;;;;1.77;1.25;;;5.40;99.90;;;;;;5053279;28;20024;-75
2023/03/12 06:00:37;;;;;;;0.45;0.45;;;5.30;99.90;;;;;;5051102;28;20037;-75
2023/03/12 06:03:04;;;;;;;3.30;2.15;;;5.30;99.90;;;;;;5051826;28;20063;-75
2023/03/12 06:05:32;;;;;;;5.85;4.10;;;5.40;99.90;;;;;;5031916;28;20040;-75
2023/03/12 06:07:58;;;;;;;3.20;0.73;;;5.40;99.90;;;;;;5052773;28;20021;-75
2023/03/12 06:10:24;;;;;;;4.47;2.67;;;5.40;99.90;;;;;;5051780;28;20511;-76
2023/03/12 06:12:50;;;;;;;0.38;0.38;;;5.60;99.90;;;;;;5052761;28;20092;-75
2023/03/12 06:15:16;;;;;;;3.47;2.25;;;5.50;99.90;;;;;;5050894;28;20024;-75
2023/03/12 06:17:42;;;;;;;3.45;2.08;;;5.60;99.90;;;;;;5051668;28;20029;-75
2023/03/12 06:20:10;;;;;;;2.00;1.30;;;5.50;99.90;;;;;;5051406;28;20063;-76
2023/03/12 06:22:36;;;;;;;1.35;1.25;;;5.50;99.90;;;;;;5052699;28;20377;-75
2023/03/12 06:25:03;;;;;;;2.28;1.45;;;5.70;99.90;;;;;;5084335;28;20339;-75
2023/03/12 06:27:29;;;;;;;4.10;2.05;;;5.60;99.90;;;;;;5050781;28;20029;-74
2023/03/12 06:29:55;;;;;;;2.75;1.55;;;5.70;99.90;;;;;;5051858;28;20036;-74
2023/03/12 06:32:20;;;;;;;2.65;2.05;;;5.70;99.90;;;;;;5052178;28;20036;-74
2023/03/12 06:34:46;;;;;;;3.10;1.38;;;5.90;99.90;;;;;;5052794;28;20033;-75
2023/03/12 06:37:12;;;;;;;3.90;2.40;;;5.90;99.90;;;;;;5052163;28;20492;-75
2023/03/12 06:39:38;;;;;;;4.55;2.67;;;5.80;99.90;;;;;;5051237;28;20085;-74
2023/03/12 06:42:04;;;;;;;0.63;0.63;;;5.90;99.90;;;;;;5052568;28;20053;-74
2023/03/12 06:44:30;;;;;;;8.88;3.97;;;5.80;99.90;;;;;;5052268;28;20381;-74
2023/03/12 06:46:57;;;;;;;10.93;5.20;;;5.90;99.90;;;;;;5052402;28;20025;-74
2023/03/12 06:49:23;;;;;;;2.78;2.17;;;6.00;99.90;;;;;;5052521;28;20547;-74
2023/03/12 06:51:49;;;;;;;1.45;1.02;;;5.90;99.90;;;;;;5052563;28;20365;-74
2023/03/12 06:54:15;;;;;;;2.35;1.90;;;6.00;99.90;;;;;;5052401;28;20116;-74
2023/03/12 06:56:41;;;;;;;4.35;2.33;;;6.00;99.90;;;;;;5052462;28;20032;-74
2023/03/12 06:59:06;;;;;;;2.33;2.10;;;6.00;99.90;;;;;;5051776;28;20469;-74
2023/03/12 07:01:32;;;;;;;2.53;1.95;;;6.10;99.90;;;;;;5052346;28;20041;-74
2023/03/12 07:03:58;;;;;;;6.38;1.98;;;6.00;99.90;;;;;;5050923;28;20067;-75
2023/03/12 07:06:24;;;;;;;14.57;6.25;;;6.20;99.90;;;;;;5052210;28;20108;-75
2023/03/12 07:08:50;;;;;;;9.00;5.10;;;6.10;99.90;;;;;;5048536;28;20359;-74
2023/03/12 07:11:17;;;;;;;6.07;3.03;;;6.10;99.90;;;;;;5052125;28;20021;-74
2023/03/12 07:13:43;;;;;;;0.35;0.35;;;6.30;99.90;;;;;;5052084;28;20482;-74
2023/03/12 07:16:10;;;;;;;6.18;3.95;;;6.50;99.90;;;;;;5052121;28;20037;-74
2023/03/12 07:18:36;;;;;;;0.20;0.20;;;6.50;99.90;;;;;;5050406;28;22167;-74
2023/03/12 07:21:01;;;;;;;2.10;1.73;;;6.60;99.90;;;;;;5049737;28;20028;-73
2023/03/12 07:23:27;;;;;;;4.90;3.85;;;6.60;99.90;;;;;;5052015;28;20367;-75
2023/03/12 07:25:53;;;;;;;1.92;1.73;;;6.60;99.90;;;;;;5052640;28;20025;-73
2023/03/12 07:28:20;;;;;;;0.88;0.88;;;6.70;99.90;;;;;;5055598;28;20021;-73
2023/03/12 07:30:49;;;;;;;4.97;3.58;;;6.80;99.90;;;;;;5056061;28;20028;-73
2023/03/12 07:33:17;;;;;;;13.45;7.85;;;6.90;99.90;;;;;;5053774;28;20090;-74
2023/03/12 07:35:45;;;;;;;22.35;8.77;;;6.90;99.90;;;;;;5057961;28;20025;-74
2023/03/12 07:38:11;;;;;;;18.98;8.05;;;7.00;99.90;;;;;;5059705;28;20029;-75
2023/03/12 07:40:36;;;;;;;8.65;4.85;;;7.10;99.90;;;;;;5054268;28;20116;-75
2023/03/12 07:43:05;;;;;;;36.90;7.15;;;7.20;99.90;;;;;;5064068;28;20016;-74
2023/03/12 07:45:31;;;;;;;30.90;10.05;;;7.30;99.90;;;;;;5063658;28;20108;-76
2023/03/12 07:47:57;;;;;;;20.10;6.28;;;7.40;99.90;;;;;;5062071;28;20044;-75
2023/03/12 07:50:23;;;;;;;28.08;9.32;;;7.50;99.90;;;;;;5058145;28;20441;-75
2023/03/12 07:52:48;;;;;;;21.63;7.75;;;7.60;99.90;;;;;;5048501;28;20032;-75
2023/03/12 07:55:15;;;;;;;7.03;4.35;;;7.70;99.90;;;;;;5053180;28;20118;-75
2023/03/12 07:57:41;;;;;;;4.57;2.67;;;7.90;99.90;;;;;;5051791;28;20017;-75
2023/03/12 08:00:09;;;;;;;7.95;4.70;;;8.00;99.90;;;;;;5052120;28;20063;-75
2023/03/12 08:02:37;;;;;;;21.45;8.98;;;8.00;99.90;;;;;;5058056;28;20112;-75
2023/03/12 08:05:04;;;;;;;14.35;6.85;;;8.10;99.90;;;;;;5060705;28;20108;-74
2023/03/12 08:07:31;;;;;;;32.55;5.63;;;8.10;99.90;;;;;;5058726;28;20025;-74
2023/03/12 08:09:58;;;;;;;19.20;6.75;;;8.20;99.90;;;;;;5050610;28;20029;-75
2023/03/12 08:12:24;;;;;;;27.00;9.88;;;8.20;99.90;;;;;;5058597;28;20074;-75
2023/03/12 08:14:49;;;;;;;29.70;12.23;;;8.20;99.90;;;;;;5055459;28;20021;-76
2023/03/12 08:17:16;;;;;;;29.17;11.18;;;8.30;99.90;;;;;;5061753;28;20130;-75
2023/03/12 08:19:41;;;;;;;35.00;7.55;;;8.40;99.90;;;;;;5054063;28;20103;-75
2023/03/12 08:22:07;;;;;;;43.03;13.10;;;8.40;99.90;;;;;;5066893;28;20041;-75
2023/03/12 08:24:34;;;;;;;34.28;6.40;;;8.50;99.90;;;;;;5051239;28;20029;-75
2023/03/12 08:27:00;;;;;;;23.88;10.60;;;8.50;99.90;;;;;;5044535;28;20155;-75
2023/03/12 08:29:26;;;;;;;13.30;7.10;;;8.60;99.90;;;;;;5046980;28;20116;-75
2023/03/12 08:31:51;;;;;;;20.80;6.57;;;8.60;99.90;;;;;;5061105;28;20025;-75
2023/03/12 08:34:17;;;;;;;42.15;11.57;;;8.80;99.90;;;;;;5048979;28;20497;-76
2023/03/12 08:36:43;;;;;;;39.72;7.82;;;8.80;99.90;;;;;;5051617;28;20029;-76
2023/03/12 08:39:09;;;;;;;37.33;11.77;;;8.90;99.90;;;;;;5057320;28;20486;-75
2023/03/12 08:41:34;;;;;;;6.20;4.30;;;8.90;99.90;;;;;;5053950;28;20021;-76
2023/03/12 08:44:00;;;;;;;21.50;5.60;;;9.00;99.90;;;;;;5039957;28;20013;-76
2023/03/12 08:46:26;;;;;;;9.40;4.80;;;9.10;99.90;;;;;;5070446;28;20466;-76
2023/03/12 08:48:51;;;;;;;29.52;11.27;;;9.30;99.90;;;;;;5050836;28;20052;-76
2023/03/12 08:51:17;;;;;;;29.75;10.25;;;9.30;99.90;;;;;;5053105;28;20489;-71
2023/03/12 08:53:44;;;;;;;45.22;8.82;;;9.40;99.90;;;;;;5052964;28;20108;-76
2023/03/12 08:56:09;;;;;;;17.38;6.40;;;9.50;99.90;;;;;;5054089;28;20032;-75
2023/03/12 08:58:35;;;;;;;30.92;8.68;;;9.60;99.90;;;;;;5054176;28;20104;-77
2023/03/12 09:01:01;;;;;;;14.82;4.07;;;9.70;99.90;;;;;;5053868;28;20044;-76
2023/03/12 09:03:27;;;;;;;21.20;6.05;;;9.80;99.90;;;;;;5053047;28;20493;-77
2023/03/12 09:06:12;;;;;;;42.58;5.20;;;9.90;99.90;;;;;;5082330;28;20710;-76
2023/03/12 09:08:38;;;;;;;18.83;7.40;;;10.10;99.90;;;;;;5053858;28;20562;-75
2023/03/12 09:11:04;;;;;;;18.65;6.47;;;10.10;99.90;;;;;;5053725;28;20033;-75
2023/03/12 09:13:30;;;;;;;53.50;5.35;;;10.10;99.90;;;;;;5054408;28;20051;-76
2023/03/12 09:16:00;;;;;;;29.23;10.70;;;10.10;99.90;;;;;;5053670;28;20035;-75
2023/03/12 09:18:27;;;;;;;25.08;8.23;;;10.10;99.90;;;;;;5053902;28;20025;-74
2023/03/12 09:20:53;;;;;;;35.05;9.38;;;10.30;99.90;;;;;;5052423;28;20033;-74
2023/03/12 09:23:19;;;;;;;8.38;4.05;;;10.30;99.90;;;;;;5051985;28;20542;-74
2023/03/12 09:25:45;;;;;;;12.15;0.55;;;10.30;99.90;;;;;;5053487;28;20120;-74
2023/03/12 09:28:11;;;;;;;36.25;5.10;;;10.50;99.90;;;;;;5053500;28;20028;-76
2023/03/12 09:30:37;;;;;;;16.92;2.10;;;10.60;99.90;;;;;;5052163;28;20791;-75
2023/03/12 09:33:03;;;;;;;9.32;2.25;;;10.60;99.90;;;;;;5053180;28;20501;-75
2023/03/12 09:35:30;;;;;;;19.77;3.08;;;10.60;99.90;;;;;;5053092;28;20493;-75
2023/03/12 09:37:57;;;;;;;18.48;5.78;;;10.70;99.90;;;;;;5053104;28;20103;-76
2023/03/12 09:40:28;;;;;;;16.40;4.45;;;10.80;99.90;;;;;;5047083;28;20063;-74
2023/03/12 09:43:01;;;;;;;3.80;1.95;;;10.90;99.90;;;;;;5061066;28;20033;-74
2023/03/12 09:45:36;;;;;;;32.53;4.68;;;11.10;99.90;;;;;;5049400;28;20029;-73
2023/03/12 09:48:05;;;;;;;43.63;7.43;;;11.00;99.90;;;;;;5053187;28;20040;-77
2023/03/12 09:50:39;;;;;;;24.45;3.13;;;11.00;99.90;;;;;;5044403;28;20036;-74
2023/03/12 09:53:19;;;;;;;33.60;5.03;;;11.00;99.90;;;;;;5046923;28;20044;-77
2023/03/12 09:55:49;;;;;;;11.35;1.63;;;11.00;99.90;;;;;;5050339;28;20040;-77
2023/03/12 09:58:26;;;;;;;6.90;2.13;;;11.10;99.90;;;;;;5051970;28;20021;-77
2023/03/12 10:01:06;;;;;;;19.98;3.63;;;11.10;99.90;;;;;;5061905;28;20068;-76
2023/03/12 10:04:14;;;;;;;11.85;3.85;;;11.10;99.90;;;;;;5042585;28;20033;-75
2023/03/12 10:07:10;;;;;;;18.15;5.00;;;11.00;99.90;;;;;;5032250;28;20028;-77
2023/03/12 10:09:49;;;;;;;34.15;7.65;;;11.00;99.90;;;;;;5055258;28;20465;-77
2023/03/12 10:12:35;;;;;;;28.17;8.40;;;10.90;99.90;;;;;;5052354;28;20397;-74
2023/03/12 10:15:26;;;;;;;22.73;7.40;;;11.10;99.90;;;;;;5051874;28;20025;-77
2023/03/12 10:18:07;;;;;;;27.33;8.52;;;11.20;99.90;;;;;;5051570;28;20052;-77
2023/03/12 10:21:01;;;;;;;27.13;7.05;;;11.10;99.90;;;;;;5048873;28;20040;-78
2023/03/12 10:23:58;;;;;;;10.82;4.22;;;11.20;99.90;;;;;;5048922;28;20040;-77
2023/03/12 10:26:33;;;;;;;34.83;5.30;;;11.30;99.90;;;;;;5051246;28;20029;-78
2023/03/12 10:29:05;;;;;;;29.60;6.18;;;11.60;99.90;;;;;;5052269;28;20025;-77
2023/03/12 10:31:47;;;;;;;27.13;6.50;;;11.60;99.90;;;;;;5051704;28;20087;-78
2023/03/12 10:34:36;;;;;;;1.27;1.20;;;11.70;99.90;;;;;;5051439;28;20036;-77
2023/03/12 10:37:17;;;;;;;15.95;4.43;;;11.90;99.90;;;;;;5049708;28;20139;-77
2023/03/12 10:39:44;;;;;;;18.45;5.75;;;11.90;99.90;;;;;;5049956;28;20033;-77
2023/03/12 10:42:17;;;;;;;7.50;1.45;;;11.90;99.90;;;;;;5052779;28;20044;-78
2023/03/12 10:44:44;;;;;;;2.05;1.55;;;12.20;99.90;;;;;;5052280;28;20091;-77
2023/03/12 10:47:36;;;;;;;4.75;2.13;;;12.30;99.90;;;;;;5052060;28;20033;-78
2023/03/12 10:50:12;;;;;;;;;;;12.80;99.90;;;;;;5050149;28;20017;-77
2023/03/12 10:52:39;;;;;;;39.13;6.60;;;12.80;99.90;;;;;;5057066;28;19916;-78
2023/03/12 10:55:31;;;;;;;26.50;6.25;;;12.60;99.90;;;;;;5052224;28;20382;-77
2023/03/12 10:57:57;;;;;;;15.48;4.65;;;12.50;99.90;;;;;;5048696;28;20041;-78
2023/03/12 11:00:26;;;;;;;36.10;5.82;;;12.50;99.90;;;;;;5053103;28;20048;-78
2023/03/12 11:03:05;;;;;;;10.63;4.32;;;12.50;99.90;;;;;;5054896;28;20029;-78
2023/03/12 11:05:46;;;;;;;29.63;6.47;;;12.80;99.90;;;;;;5055580;28;20021;-78
2023/03/12 11:08:34;;;;;;;15.57;5.25;;;12.70;99.90;;;;;;5056387;28;20078;-76
2023/03/12 11:11:01;;;;;;;20.95;3.25;;;12.50;99.90;;;;;;5056001;28;20028;-78
2023/03/12 11:13:30;;;;;;;21.90;4.40;;;12.80;99.90;;;;;;5055456;28;20103;-77
2023/03/12 11:16:13;;;;;;;30.88;5.75;;;12.60;99.90;;;;;;5055355;28;20025;-78
2023/03/12 11:18:52;;;;;;;12.55;2.30;;;12.70;99.90;;;;;;5052973;28;20127;-77
2023/03/12 11:21:19;;;;;;;18.17;3.42;;;12.70;99.90;;;;;;5056001;28;20045;-78
2023/03/12 11:23:55;;;;;;;26.60;5.93;;;12.90;99.90;;;;;;5055954;28;20021;-78
2023/03/12 11:26:34;;;;;;;20.58;4.25;;;12.80;99.90;;;;;;5055869;28;20075;-78
2023/03/12 11:29:28;;;;;;;28.23;5.18;;;12.60;99.90;;;;;;5055657;28;20025;-77
2023/03/12 11:32:07;;;;;;;48.80;6.53;;;12.60;99.90;;;;;;5055468;28;20474;-78
2023/03/12 11:34:36;;;;;;;22.35;3.97;;;12.60;99.90;;;;;;5053761;28;20094;-77
2023/03/12 11:37:10;;;;;;;34.78;4.82;;;12.60;99.90;;;;;;5053823;28;20033;-78
2023/03/12 11:39:36;;;;;;;28.70;5.65;;;12.70;99.90;;;;;;5053827;28;20040;-78
2023/03/12 11:42:45;;;;;;;11.05;3.15;;;12.60;99.90;;;;;;5054201;28;20434;-78
2023/03/12 11:45:18;;;;;;;24.05;4.55;;;13.00;99.90;;;;;;5046460;28;20029;-78
2023/03/12 11:47:50;;;;;;;5.18;2.58;;;12.90;99.90;;;;;;5054048;28;20436;-78
2023/03/12 11:50:28;;;;;;;;;;;12.80;99.90;;;;;;5055665;28;20095;-77
2023/03/12 11:53:06;;;;;;;22.73;4.72;;;13.30;99.90;;;;;;5055377;28;19909;-78
2023/03/12 11:56:24;;;;;;;6.93;3.17;;;13.00;99.90;;;;;;5055235;28;20425;-77
2023/03/12 11:59:11;;;;;;;16.75;4.40;;;13.50;99.90;;;;;;5036668;28;20055;-78
2023/03/12 12:01:43;;;;;;;12.93;2.13;;;13.80;99.90;;;;;;5047624;28;20040;-77
2023/03/12 12:04:30;;;;;;;11.25;2.08;;;13.50;99.90;;;;;;5054475;28;20036;-78
2023/03/12 12:07:17;;;;;;;16.75;3.53;;;13.60;99.90;;;;;;5055222;28;20067;-78
2023/03/12 12:10:02;;;;;;;2.58;1.10;;;13.50;99.90;;;;;;5044134;28;20024;-77
2023/03/12 12:12:52;;;;;;;15.10;3.47;;;13.90;99.90;;;;;;5053829;28;20029;-79
2023/03/12 12:15:26;;;;;;;28.58;4.70;;;13.90;99.90;;;;;;5055139;28;20044;-78
2023/03/12 12:18:37;;;;;;;0.30;0.30;;;13.50;99.90;;;;;;5084319;28;20101;-78
2023/03/12 12:21:06;;;;;;;20.63;3.55;;;13.50;99.90;;;;;;5054711;28;20125;-78
2023/03/12 12:23:41;;;;;;;19.30;3.38;;;13.60;99.90;;;;;;5054529;28;20470;-78
2023/03/12 12:26:08;;;;;;;11.30;3.33;;;13.30;99.90;;;;;;5054851;28;20478;-78
2023/03/12 12:28:57;;;;;;;3.80;1.02;;;13.40;99.90;;;;;;5049189;28;20061;-77
2023/03/12 12:31:28;;;;;;;34.97;4.88;;;13.50;99.90;;;;;;5054168;28;20041;-77
2023/03/12 12:34:04;;;;;;;;;;;13.40;99.90;;;;;;5055355;28;20116;-76
2023/03/12 12:36:34;;;;;;;20.63;1.92;;;13.40;99.90;;;;;;5054028;28;19909;-77
2023/03/12 12:39:14;;;;;;;17.25;3.10;;;13.50;99.90;;;;;;5053104;28;20066;-76
2023/03/12 12:41:56;;;;;;;16.00;2.60;;;13.30;99.90;;;;;;5054257;28;20447;-76
2023/03/12 12:44:32;;;;;;;18.35;4.43;;;13.10;99.90;;;;;;5054715;28;20033;-76
2023/03/12 12:47:04;;;;;;;25.17;4.00;;;13.00;99.90;;;;;;5054064;28;20075;-76
2023/03/12 12:49:47;;;;;;;11.75;3.45;;;13.00;99.90;;;;;;5053984;28;20029;-76
2023/03/12 12:52:19;;;;;;;17.90;2.65;;;13.50;99.90;;;;;;5055682;28;20045;-76
2023/03/12 12:54:44;;;;;;;19.23;3.17;;;13.70;99.90;;;;;;5054781;28;20060;-76
2023/03/12 12:57:14;;;;;;;16.33;3.67;;;13.50;99.90;;;;;;5058000;28;20075;-76
2023/03/12 12:59:53;;;;;;;16.48;3.60;;;13.30;99.90;;;;;;5055162;28;20069;-76
2023/03/12 13:02:23;;;;;;;9.30;4.03;;;13.30;99.90;;;;;;5040447;28;20045;-76
2023/03/12 13:04:49;;;;;;;22.90;6.05;;;13.20;99.90;;;;;;5056239;28;20489;-76